createdAt,value
2022-08-09T00:00:13.124Z,14.76
2022-08-09T00:02:49.161Z,14.68
2022-08-09T00:06:18.383Z,14.67
2022-08-09T00:08:04.297Z,14.61
2022-08-09T00:10:37.183Z,14.57
2022-08-09T00:13:12.909Z,14.55
2022-08-09T00:15:58.721Z,14.51
2022-08-09T00:18:26.159Z,14.47
2022-08-09T00:20:55.456Z,14.41
2022-08-09T00:23:56.394Z,14.38
2022-08-09T00:26:11.076Z,14.35
2022-08-09T00:28:38.216Z,14.32
2022-08-09T00:31:30.728Z,14.28
2022-08-09T00:33:52.238Z,14.25
2022-08-09T00:36:19.706Z,14.21
2022-08-09T00:38:46.316Z,14.24
2022-08-09T00:44:14.337Z,14.20
2022-08-09T00:44:15.501Z,14.16
2022-08-09T00:46:56.203Z,14.10
2022-08-09T00:49:28.330Z,14.05
2022-08-09T00:51:57.410Z,14.01
2022-08-09T00:54:31.534Z,13.99
2022-08-09T00:57:02.527Z,13.94
2022-08-09T00:59:40.916Z,13.90
2022-08-09T01:02:08.854Z,13.87
2022-08-09T01:04:52.611Z,13.84
2022-08-09T01:07:37.654Z,13.79
2022-08-09T01:10:13.961Z,13.76
2022-08-09T01:12:40.389Z,13.72
2022-08-09T01:15:16.675Z,13.67
2022-08-09T01:17:43.666Z,13.65
2022-08-09T01:20:15.089Z,13.60
2022-08-09T01:23:00.338Z,13.59
2022-08-09T01:25:50.980Z,13.56
2022-08-09T01:28:19.127Z,13.50
2022-08-09T01:30:51.660Z,13.45
2022-08-09T01:33:21.730Z,13.43
2022-08-09T01:36:03.461Z,13.40
2022-08-09T01:38:31.939Z,13.39
2022-08-09T01:41:05.840Z,13.33
2022-08-09T01:43:42.001Z,13.34
2022-08-09T01:46:30.151Z,13.33
2022-08-09T01:49:10.410Z,13.30
2022-08-09T01:52:07.383Z,13.28
2022-08-09T01:54:39.756Z,13.25
2022-08-09T01:57:09.686Z,13.21
2022-08-09T01:59:40.890Z,13.18
2022-08-09T02:02:19.359Z,13.14
2022-08-09T02:04:49.485Z,13.09
2022-08-09T02:08:41.106Z,13.04
2022-08-09T02:10:12.235Z,12.99
2022-08-09T02:12:39.949Z,12.98
2022-08-09T02:15:07.887Z,12.91
2022-08-09T02:18:01.138Z,12.91
2022-08-09T02:20:26.545Z,12.85
2022-08-09T02:23:08.965Z,12.82
2022-08-09T02:25:42.327Z,12.77
2022-08-09T02:28:17.900Z,12.72
2022-08-09T02:30:51.781Z,12.71
2022-08-09T02:33:23.105Z,12.68
2022-08-09T02:36:07.150Z,12.67
2022-08-09T02:38:42.013Z,12.61
2022-08-09T02:41:16.391Z,12.58
2022-08-09T02:43:54.826Z,12.55
2022-08-09T02:46:24.481Z,12.51
2022-08-09T02:48:51.574Z,12.49
2022-08-09T02:51:18.613Z,12.49
2022-08-09T02:53:53.122Z,12.46
2022-08-09T02:56:28.204Z,12.43
2022-08-09T02:58:55.211Z,12.39
2022-08-09T03:01:29.666Z,12.36
2022-08-09T03:04:16.652Z,12.31
2022-08-09T03:06:45.962Z,12.28
2022-08-09T03:09:16.333Z,12.25
2022-08-09T03:12:10.460Z,12.25
2022-08-09T03:14:32.155Z,12.20
2022-08-09T03:17:02.218Z,12.20
2022-08-09T03:19:59.554Z,12.18
2022-08-09T03:22:24.984Z,12.16
2022-08-09T03:25:13.598Z,12.12
2022-08-09T03:27:45.218Z,12.07
2022-08-09T03:30:12.695Z,12.02
2022-08-09T03:32:40.437Z,12.00
2022-08-09T03:35:24.330Z,11.96
2022-08-09T03:37:55.341Z,11.92
2022-08-09T03:40:25.047Z,11.88
2022-08-09T03:42:51.653Z,11.89
2022-08-09T03:46:03.831Z,11.86
2022-08-09T03:48:04.741Z,11.85
2022-08-09T03:50:33.172Z,11.83
2022-08-09T03:53:01.639Z,11.83
2022-08-09T03:55:30.166Z,11.80
2022-08-09T03:58:06.324Z,11.79
2022-08-09T04:00:44.067Z,11.84
2022-08-09T04:03:19.535Z,11.84
2022-08-09T04:05:50.913Z,11.79
2022-08-09T04:08:17.413Z,11.75
2022-08-09T04:10:44.503Z,11.72
2022-08-09T04:13:18.592Z,11.72
2022-08-09T04:16:19.442Z,11.69
2022-08-09T04:18:31.812Z,11.70
2022-08-09T04:20:58.581Z,11.71
2022-08-09T04:23:25.726Z,11.70
2022-08-09T04:25:53.324Z,11.68
2022-08-09T04:28:34.145Z,11.69
2022-08-09T04:31:05.673Z,11.70
2022-08-09T04:33:52.038Z,11.69
2022-08-09T04:36:24.760Z,11.65
2022-08-09T04:38:51.387Z,11.65
2022-08-09T04:41:18.768Z,11.63
2022-08-09T04:43:46.530Z,11.64
2022-08-09T04:46:38.306Z,11.63
2022-08-09T04:49:07.303Z,11.64
2022-08-09T04:51:34.995Z,11.66
2022-08-09T04:54:01.575Z,11.68
2022-08-09T04:56:28.012Z,11.73
2022-08-09T04:58:54.449Z,11.77
2022-08-09T05:01:21.923Z,11.85
2022-08-09T05:03:49.322Z,11.96
2022-08-09T05:06:27.961Z,12.06
2022-08-09T05:09:00.679Z,12.15
2022-08-09T05:11:30.513Z,12.20
2022-08-09T05:13:58.692Z,12.23
2022-08-09T05:16:28.446Z,12.25
2022-08-09T05:18:59.906Z,12.34
2022-08-09T05:21:30.450Z,12.45
2022-08-09T05:24:04.077Z,12.53
2022-08-09T05:26:36.554Z,12.56
2022-08-09T05:29:03.906Z,12.62
2022-08-09T05:31:39.829Z,12.68
2022-08-09T05:34:16.967Z,12.74
2022-08-09T05:36:44.134Z,12.80
2022-08-09T05:39:13.956Z,12.85
2022-08-09T05:41:55.443Z,12.91
2022-08-09T05:44:22.118Z,13.00
2022-08-09T05:46:55.410Z,13.08
2022-08-09T05:50:24.348Z,13.13
2022-08-09T05:52:08.469Z,13.22
2022-08-09T05:54:34.926Z,13.30
2022-08-09T05:57:01.380Z,13.36
2022-08-09T05:59:32.841Z,13.46
2022-08-09T06:01:59.994Z,13.55
2022-08-09T06:04:34.871Z,13.63
2022-08-09T06:07:01.650Z,13.76
2022-08-09T06:09:54.138Z,13.88
2022-08-09T06:12:14.829Z,14.03
2022-08-09T06:14:43.565Z,14.19
2022-08-09T06:17:10.367Z,14.33
2022-08-09T06:19:36.933Z,14.47
2022-08-09T06:22:04.000Z,14.67
2022-08-09T06:24:31.101Z,14.93
2022-08-09T06:26:58.081Z,15.26
2022-08-09T06:29:24.881Z,15.61
2022-08-09T06:32:08.888Z,16.01
2022-08-09T06:34:40.398Z,16.57
2022-08-09T06:37:09.947Z,17.14
2022-08-09T06:39:48.208Z,17.72
2022-08-09T06:42:24.802Z,18.28
2022-08-09T06:44:55.377Z,18.73
2022-08-09T06:47:24.036Z,19.14
2022-08-09T06:50:14.155Z,19.70
2022-08-09T06:52:40.052Z,20.06
2022-08-09T06:55:12.574Z,20.21
2022-08-09T06:58:02.119Z,20.43
2022-08-09T07:00:49.541Z,20.40
2022-08-09T07:03:13.279Z,20.53
2022-08-09T07:06:02.316Z,20.57
2022-08-09T07:08:26.872Z,20.96
2022-08-09T07:10:57.077Z,21.29
2022-08-09T07:13:29.715Z,21.63
2022-08-09T07:16:42.429Z,21.82
2022-08-09T07:18:43.901Z,21.76
2022-08-09T07:21:13.845Z,21.70
2022-08-09T07:23:46.710Z,21.72
2022-08-09T07:26:25.156Z,21.88
2022-08-09T07:29:08.967Z,21.85
2022-08-09T07:31:45.313Z,21.94
2022-08-09T07:34:20.238Z,22.18
2022-08-09T07:36:47.961Z,22.49
2022-08-09T07:39:19.989Z,22.59
2022-08-09T07:42:02.389Z,22.31
2022-08-09T07:44:32.961Z,22.35
2022-08-09T07:47:15.755Z,22.44
2022-08-09T07:50:05.105Z,22.41
2022-08-09T07:52:29.871Z,22.75
2022-08-09T07:54:56.774Z,22.72
2022-08-09T07:57:24.050Z,22.90
2022-08-09T08:00:03.132Z,23.26
2022-08-09T08:02:30.562Z,23.23
2022-08-09T08:04:57.253Z,23.16
2022-08-09T08:08:43.914Z,23.06
2022-08-09T08:10:11.678Z,23.30
2022-08-09T08:12:43.675Z,23.51
2022-08-09T08:15:13.944Z,23.67
2022-08-09T08:17:55.102Z,23.88
2022-08-09T08:20:28.979Z,24.12
2022-08-09T08:23:01.783Z,23.96
2022-08-09T08:25:44.798Z,24.03
2022-08-09T08:28:14.451Z,24.17
2022-08-09T08:30:42.251Z,24.20
2022-08-09T08:33:11.831Z,24.02
2022-08-09T08:35:58.500Z,24.11
2022-08-09T08:38:25.347Z,24.59
2022-08-09T08:40:55.705Z,24.63
2022-08-09T08:43:23.764Z,24.70
2022-08-09T08:45:53.179Z,24.69
2022-08-09T08:48:29.256Z,24.71
2022-08-09T08:50:58.297Z,24.59
2022-08-09T08:53:32.303Z,24.35
2022-08-09T08:56:03.455Z,24.27
2022-08-09T08:58:32.187Z,23.98
2022-08-09T09:01:03.043Z,23.73
2022-08-09T09:03:37.938Z,23.66
2022-08-09T09:06:05.800Z,23.59
2022-08-09T09:08:38.086Z,23.53
2022-08-09T09:11:07.377Z,23.60
2022-08-09T09:13:50.290Z,23.58
2022-08-09T09:16:30.319Z,23.53
2022-08-09T09:19:22.474Z,23.61
2022-08-09T09:22:05.257Z,23.57
2022-08-09T09:24:39.689Z,23.71
2022-08-09T09:27:08.571Z,23.77
2022-08-09T09:30:10.584Z,23.72
2022-08-09T09:32:32.547Z,23.72
2022-08-09T09:35:09.881Z,23.85
2022-08-09T09:37:40.393Z,23.90
2022-08-09T09:40:07.819Z,23.91
2022-08-09T09:42:35.347Z,24.01
2022-08-09T09:45:03.768Z,24.05
2022-08-09T09:47:32.724Z,24.21
2022-08-09T09:50:16.875Z,24.34
2022-08-09T09:52:54.475Z,24.30
2022-08-09T09:55:28.264Z,24.31
2022-08-09T09:58:17.295Z,24.38
2022-08-09T10:00:59.784Z,24.45
2022-08-09T10:03:37.201Z,24.38
2022-08-09T10:06:04.757Z,24.49
2022-08-09T10:08:32.061Z,24.69
2022-08-09T10:10:58.537Z,24.82
2022-08-09T10:13:43.039Z,24.85
2022-08-09T10:16:57.724Z,24.78
2022-08-09T10:18:59.859Z,24.73
2022-08-09T10:21:27.291Z,24.83
2022-08-09T10:23:54.867Z,24.94
2022-08-09T10:26:24.669Z,25.04
2022-08-09T10:29:22.647Z,25.19
2022-08-09T10:32:37.454Z,25.15
2022-08-09T10:34:33.438Z,25.29
2022-08-09T10:37:00.817Z,25.40
2022-08-09T10:39:28.518Z,25.53
2022-08-09T10:41:55.400Z,25.59
2022-08-09T10:44:23.092Z,25.61
2022-08-09T10:47:20.377Z,25.65
2022-08-09T10:49:59.414Z,25.73
2022-08-09T10:52:26.434Z,25.83
2022-08-09T10:54:53.642Z,25.88
2022-08-09T10:57:20.454Z,26.04
2022-08-09T10:59:57.742Z,26.09
2022-08-09T11:03:11.076Z,26.17
2022-08-09T11:05:30.012Z,26.28
2022-08-09T11:07:59.439Z,26.30
2022-08-09T11:10:53.406Z,26.42
2022-08-09T11:13:54.576Z,26.59
2022-08-09T11:16:35.179Z,26.59
2022-08-09T11:19:02.640Z,26.81
2022-08-09T11:21:57.476Z,26.96
2022-08-09T11:24:59.162Z,27.24
2022-08-09T11:28:05.379Z,27.23
2022-08-09T11:30:33.054Z,27.38
2022-08-09T11:33:03.168Z,27.67
2022-08-09T11:35:49.210Z,27.98
2022-08-09T11:38:19.678Z,28.27
2022-08-09T11:40:49.172Z,28.39
2022-08-09T11:43:25.633Z,28.38
2022-08-09T11:46:00.081Z,28.79
2022-08-09T11:48:29.908Z,28.93
2022-08-09T11:52:38.647Z,29.04
2022-08-09T11:54:00.621Z,29.00
2022-08-09T11:56:41.572Z,29.60
2022-08-09T11:59:11.650Z,29.81
2022-08-09T12:02:17.154Z,29.92
2022-08-09T12:04:28.620Z,29.86
2022-08-09T12:06:58.874Z,29.43
2022-08-09T12:09:26.455Z,29.66
2022-08-09T12:12:03.079Z,30.41
2022-08-09T12:14:37.017Z,30.50
2022-08-09T12:17:33.876Z,31.10
2022-08-09T12:20:00.083Z,31.48
2022-08-09T12:22:27.277Z,32.19
2022-08-09T12:25:10.929Z,31.41
2022-08-09T12:29:11.255Z,31.38
2022-08-09T12:30:36.534Z,31.37
2022-08-09T12:33:06.212Z,30.45
2022-08-09T12:35:40.183Z,30.17
2022-08-09T12:38:29.520Z,30.79
2022-08-09T12:41:04.099Z,30.89
2022-08-09T12:44:06.801Z,32.04
2022-08-09T12:46:18.613Z,32.29
2022-08-09T12:48:46.324Z,32.74
2022-08-09T12:51:12.775Z,33.33
2022-08-09T12:53:59.383Z,32.76
2022-08-09T12:56:40.011Z,32.57
2022-08-09T12:59:20.505Z,32.86
2022-08-09T13:01:59.715Z,32.30
2022-08-09T13:04:36.360Z,32.09
2022-08-09T13:07:16.516Z,32.16
2022-08-09T13:09:55.639Z,32.57
2022-08-09T13:12:28.022Z,32.31
2022-08-09T13:15:03.292Z,32.38
2022-08-09T13:17:58.609Z,32.22
2022-08-09T13:20:23.379Z,32.15
2022-08-09T13:23:01.846Z,32.52
2022-08-09T13:25:42.933Z,32.39
2022-08-09T13:28:34.147Z,32.26
2022-08-09T13:32:13.274Z,31.89
2022-08-09T13:33:56.793Z,32.67
2022-08-09T13:36:42.380Z,32.54
2022-08-09T13:41:17.271Z,32.77
2022-08-09T13:42:02.053Z,33.00
2022-08-09T13:44:29.125Z,32.48
2022-08-09T13:47:26.687Z,32.31
2022-08-09T13:49:57.590Z,31.92
2022-08-09T13:52:27.768Z,32.47
2022-08-09T13:54:59.672Z,32.78
2022-08-09T13:57:36.423Z,33.34
2022-08-09T14:00:06.919Z,32.97
2022-08-09T14:02:33.338Z,33.12
2022-08-09T14:05:08.945Z,33.21
2022-08-09T14:07:41.009Z,33.56
2022-08-09T14:10:17.564Z,33.69
2022-08-09T14:12:56.215Z,33.72
2022-08-09T14:16:06.530Z,33.62
2022-08-09T14:18:19.919Z,33.14
2022-08-09T14:20:54.241Z,32.55
2022-08-09T14:23:40.094Z,31.76
2022-08-09T14:26:07.147Z,31.87
2022-08-09T14:28:36.640Z,31.73
2022-08-09T14:31:03.152Z,32.09
2022-08-09T14:33:30.376Z,32.08
2022-08-09T14:36:19.970Z,32.65
2022-08-09T14:38:53.081Z,32.54
2022-08-09T14:41:34.841Z,32.19
2022-08-09T14:44:07.182Z,32.01
2022-08-09T14:46:54.808Z,32.07
2022-08-09T14:49:25.589Z,31.43
2022-08-09T14:51:53.210Z,31.31
2022-08-09T14:54:27.579Z,31.06
2022-08-09T14:56:59.005Z,30.98
2022-08-09T14:59:27.200Z,30.98
2022-08-09T15:01:54.892Z,30.54
2022-08-09T15:04:23.605Z,30.49
2022-08-09T15:06:51.331Z,29.98
2022-08-09T15:09:30.509Z,30.16
2022-08-09T15:12:05.292Z,30.61
2022-08-09T15:14:34.818Z,30.74
2022-08-09T15:17:07.745Z,30.49
2022-08-09T15:19:36.517Z,30.75
2022-08-09T15:22:03.366Z,30.06
2022-08-09T15:24:30.080Z,29.83
2022-08-09T15:26:57.692Z,29.87
2022-08-09T15:30:59.386Z,29.62
2022-08-09T15:32:29.813Z,29.23
2022-08-09T15:35:00.981Z,29.07
2022-08-09T15:37:56.154Z,28.99
2022-08-09T15:40:25.299Z,29.08
2022-08-09T15:42:58.413Z,29.08
2022-08-09T15:45:29.529Z,28.98
2022-08-09T15:48:05.239Z,29.03
2022-08-09T15:50:34.385Z,28.87
2022-08-09T15:53:07.547Z,28.93
2022-08-09T15:56:04.497Z,28.81
2022-08-09T15:58:32.900Z,28.86
2022-08-09T16:00:59.444Z,28.79
2022-08-09T16:03:29.423Z,28.87
2022-08-09T16:06:04.645Z,28.72
2022-08-09T16:08:31.630Z,28.77
2022-08-09T16:11:02.470Z,28.60
2022-08-09T16:14:02.582Z,28.42
2022-08-09T16:16:19.307Z,28.22
2022-08-09T16:18:46.549Z,28.05
2022-08-09T16:21:16.808Z,28.04
2022-08-09T16:23:50.832Z,27.86
2022-08-09T16:26:34.408Z,27.57
2022-08-09T16:29:10.571Z,27.52
2022-08-09T16:32:19.048Z,27.41
2022-08-09T16:34:25.472Z,27.29
2022-08-09T16:36:52.583Z,27.17
2022-08-09T16:39:19.255Z,27.10
2022-08-09T16:42:02.505Z,26.96
2022-08-09T16:44:31.794Z,26.95
2022-08-09T16:47:03.965Z,26.96
2022-08-09T16:50:29.595Z,26.90
2022-08-09T16:52:31.766Z,26.84
2022-08-09T16:54:58.347Z,26.87
2022-08-09T16:57:24.858Z,26.76
2022-08-09T16:59:57.323Z,26.74
2022-08-09T17:02:25.603Z,26.69
2022-08-09T17:04:52.097Z,26.65
2022-08-09T17:08:44.011Z,26.65
2022-08-09T17:10:07.229Z,26.67
2022-08-09T17:12:35.752Z,26.61
2022-08-09T17:15:30.526Z,26.57
2022-08-09T17:17:50.368Z,26.48
2022-08-09T17:20:34.763Z,26.47
2022-08-09T17:23:03.320Z,26.46
2022-08-09T17:25:31.291Z,26.33
2022-08-09T17:28:04.178Z,26.26
2022-08-09T17:30:31.643Z,26.23
2022-08-09T17:33:04.857Z,26.16
2022-08-09T17:35:33.273Z,26.05
2022-08-09T17:38:02.332Z,25.98
2022-08-09T17:40:41.382Z,25.90
2022-08-09T17:43:33.006Z,25.88
2022-08-09T17:46:03.490Z,25.81
2022-08-09T17:48:31.561Z,25.72
2022-08-09T17:51:08.679Z,25.62
2022-08-09T17:53:43.488Z,25.55
2022-08-09T17:56:19.356Z,25.46
2022-08-09T17:58:47.121Z,25.41
2022-08-09T18:01:22.611Z,25.34
2022-08-09T18:03:50.676Z,25.36
2022-08-09T18:06:30.693Z,25.26
2022-08-09T18:09:00.341Z,25.16
2022-08-09T18:11:26.775Z,25.11
2022-08-09T18:14:02.492Z,25.01
2022-08-09T18:16:32.289Z,24.93
2022-08-09T18:19:04.190Z,24.85
2022-08-09T18:21:46.611Z,24.77
2022-08-09T18:24:16.823Z,24.70
2022-08-09T18:26:46.333Z,24.55
2022-08-09T18:30:39.000Z,24.43
2022-08-09T18:32:00.450Z,24.39
2022-08-09T18:34:31.520Z,24.39
2022-08-09T18:36:58.150Z,24.30
2022-08-09T18:39:25.727Z,24.28
2022-08-09T18:42:00.718Z,24.24
2022-08-09T18:44:27.501Z,24.14
2022-08-09T18:47:08.155Z,24.03
2022-08-09T18:49:43.712Z,23.98
2022-08-09T18:52:13.675Z,23.89
2022-08-09T18:54:49.731Z,23.81
2022-08-09T18:57:19.893Z,23.72
2022-08-09T18:59:51.969Z,23.61
2022-08-09T19:02:31.975Z,23.57
2022-08-09T19:05:20.650Z,23.47
2022-08-09T19:08:04.368Z,23.43
2022-08-09T19:10:37.878Z,23.36
2022-08-09T19:13:19.279Z,23.28
2022-08-09T19:15:50.490Z,23.23
2022-08-09T19:18:33.158Z,23.17
2022-08-09T19:21:05.238Z,23.09
2022-08-09T19:24:39.489Z,23.09
2022-08-09T19:26:18.976Z,23.00
2022-08-09T19:28:56.091Z,22.94
2022-08-09T19:31:27.960Z,22.87
2022-08-09T19:33:57.239Z,22.83
2022-08-09T19:36:30.889Z,22.76
2022-08-09T19:38:59.623Z,22.65
2022-08-09T19:41:35.329Z,22.56
2022-08-09T19:44:03.369Z,22.46
2022-08-09T19:46:35.505Z,22.37
2022-08-09T19:50:08.600Z,22.24
2022-08-09T19:52:03.526Z,22.19
2022-08-09T19:54:30.705Z,22.12
2022-08-09T19:56:58.519Z,21.97
2022-08-09T19:59:57.602Z,21.95
2022-08-09T20:03:24.114Z,21.93
2022-08-09T20:05:01.204Z,21.84
2022-08-09T20:07:33.762Z,21.71
2022-08-09T20:10:17.611Z,21.61
2022-08-09T20:12:49.049Z,21.50
2022-08-09T20:16:34.446Z,21.40
2022-08-09T20:18:04.769Z,21.28
2022-08-09T20:20:35.013Z,21.12
2022-08-09T20:23:04.316Z,21.07
2022-08-09T20:25:38.161Z,20.98
2022-08-09T20:28:27.415Z,20.89
2022-08-09T20:30:58.525Z,20.79
2022-08-09T20:33:25.794Z,20.69
2022-08-09T20:35:52.837Z,20.61
2022-08-09T20:38:33.151Z,20.51
2022-08-09T20:41:06.094Z,20.38
2022-08-09T20:43:32.648Z,20.28
2022-08-09T20:46:33.484Z,20.18
2022-08-09T20:48:45.683Z,20.08
2022-08-09T20:51:19.393Z,20.00
2022-08-09T20:53:46.321Z,19.92
2022-08-09T20:56:20.074Z,19.80
2022-08-09T20:58:48.151Z,19.72
2022-08-09T21:01:34.624Z,19.66
2022-08-09T21:05:49.101Z,19.60
2022-08-09T21:06:48.935Z,19.54
2022-08-09T21:09:25.051Z,19.47
2022-08-09T21:14:34.729Z,19.27
2022-08-09T21:17:02.376Z,19.18
2022-08-09T21:20:18.550Z,19.08
2022-08-09T21:22:41.171Z,19.00
2022-08-09T21:25:26.889Z,18.91
2022-08-09T21:28:04.641Z,18.84
2022-08-09T21:30:33.972Z,18.76
2022-08-09T21:33:03.448Z,18.69
2022-08-09T21:35:39.522Z,18.62
2022-08-09T21:38:18.404Z,18.50
2022-08-09T21:40:50.582Z,18.42
2022-08-09T21:43:21.741Z,18.37
2022-08-09T21:46:03.907Z,18.32
2022-08-09T21:48:31.441Z,18.25
2022-08-09T21:50:58.686Z,18.19
2022-08-09T21:53:41.014Z,18.13
2022-08-09T21:56:15.161Z,18.05
2022-08-09T21:58:54.432Z,17.95
2022-08-09T22:01:26.397Z,17.90
2022-08-09T22:04:07.984Z,17.82
2022-08-09T22:06:34.411Z,17.80
2022-08-09T22:09:01.393Z,17.75
2022-08-09T22:12:06.059Z,17.69
2022-08-09T22:14:14.849Z,17.62
2022-08-09T22:16:41.408Z,17.56
2022-08-09T22:19:23.669Z,17.51
2022-08-09T22:21:54.454Z,17.42
2022-08-09T22:24:24.881Z,17.39
2022-08-09T22:26:52.215Z,17.34
2022-08-09T22:29:19.104Z,17.30
2022-08-09T22:31:57.464Z,17.25
2022-08-09T22:34:26.267Z,17.13
2022-08-09T22:36:54.023Z,17.11
2022-08-09T22:39:56.360Z,17.07
2022-08-09T22:42:22.382Z,17.01
2022-08-09T22:48:04.903Z,16.94
2022-08-09T22:48:11.071Z,16.89
2022-08-09T22:50:24.497Z,16.83
2022-08-09T22:52:54.937Z,16.77
2022-08-09T22:55:24.934Z,16.72
2022-08-09T22:58:00.529Z,16.66
2022-08-09T23:00:29.633Z,16.61
2022-08-09T23:02:56.244Z,16.56
2022-08-09T23:05:22.865Z,16.49
2022-08-09T23:08:22.330Z,16.46
2022-08-09T23:10:50.385Z,16.44
2022-08-09T23:13:16.847Z,16.41
2022-08-09T23:15:43.276Z,16.34
2022-08-09T23:18:28.863Z,16.28
2022-08-09T23:20:55.300Z,16.21
2022-08-09T23:23:21.705Z,16.20
2022-08-09T23:25:48.205Z,16.17
2022-08-09T23:28:16.140Z,16.16
2022-08-09T23:30:51.275Z,16.08
2022-08-09T23:33:18.414Z,16.05
2022-08-09T23:36:04.764Z,16.00
2022-08-09T23:38:31.557Z,15.99
2022-08-09T23:40:58.017Z,15.91
2022-08-09T23:43:24.467Z,15.89
2022-08-09T23:45:50.964Z,15.83
2022-08-09T23:48:18.181Z,15.81
2022-08-09T23:50:44.584Z,15.76
2022-08-09T23:53:11.123Z,15.70
2022-08-09T23:55:38.898Z,15.66
2022-08-09T23:58:08.491Z,15.62
